sensor_id;sensor_type;location;lat;lon;timestamp;temperature;humidity
12957;DHT22;6543;48.836;10.092;2023-05-07T00:01:29;11.80;99.90
12957;DHT22;6543;48.836;10.092;2023-05-07T00:03:56;11.90;99.90
12957;DHT22;6543;48.836;10.092;2023-05-07T00:06:25;11.90;99.90
12957;DHT22;6543;48.836;10.092;2023-05-07T00:08:54;11.90;99.90
12957;DHT22;6543;48.836;10.092;2023-05-07T00:11:21;11.90;99.90
12957;DHT22;6543;48.836;10.092;2023-05-07T00:13:48;11.90;99.90
12957;DHT22;6543;48.836;10.092;2023-05-07T00:16:15;11.90;99.90
12957;DHT22;6543;48.836;10.092;2023-05-07T00:18:42;11.90;99.90
12957;DHT22;6543;48.836;10.092;2023-05-07T00:21:09;13.40;99.90
12957;DHT22;6543;48.836;10.092;2023-05-07T00:23:37;11.80;99.90
12957;DHT22;6543;48.836;10.092;2023-05-07T00:26:04;11.70;99.90
12957;DHT22;6543;48.836;10.092;2023-05-07T00:28:31;11.70;99.90
12957;DHT22;6543;48.836;10.092;2023-05-07T00:31:00;13.20;99.90
12957;DHT22;6543;48.836;10.092;2023-05-07T00:33:31;11.80;99.90
12957;DHT22;6543;48.836;10.092;2023-05-07T00:35:58;11.80;99.90
12957;DHT22;6543;48.836;10.092;2023-05-07T00:38:26;11.80;99.90
12957;DHT22;6543;48.836;10.092;2023-05-07T00:40:54;11.70;99.90
12957;DHT22;6543;48.836;10.092;2023-05-07T00:43:21;11.90;99.90
12957;DHT22;6543;48.836;10.092;2023-05-07T00:45:48;11.70;99.90
12957;DHT22;6543;48.836;10.092;2023-05-07T00:48:16;11.80;99.90
12957;DHT22;6543;48.836;10.092;2023-05-07T00:50:43;11.70;99.90
12957;DHT22;6543;48.836;10.092;2023-05-07T00:53:11;12.00;99.90
12957;DHT22;6543;48.836;10.092;2023-05-07T00:55:38;11.80;99.90
12957;DHT22;6543;48.836;10.092;2023-05-07T00:58:07;12.70;99.90
12957;DHT22;6543;48.836;10.092;2023-05-07T01:00:34;11.80;99.90
12957;DHT22;6543;48.836;10.092;2023-05-07T01:03:01;11.80;99.90
12957;DHT22;6543;48.836;10.092;2023-05-07T01:05:28;11.90;99.90
12957;DHT22;6543;48.836;10.092;2023-05-07T01:07:57;11.70;99.90
12957;DHT22;6543;48.836;10.092;2023-05-07T01:10:24;11.80;99.90
12957;DHT22;6543;48.836;10.092;2023-05-07T01:12:52;11.70;99.90
12957;DHT22;6543;48.836;10.092;2023-05-07T01:15:21;11.70;99.90
12957;DHT22;6543;48.836;10.092;2023-05-07T01:17:48;11.70;99.90
12957;DHT22;6543;48.836;10.092;2023-05-07T01:20:15;11.60;99.90
12957;DHT22;6543;48.836;10.092;2023-05-07T01:22:43;11.60;99.90
12957;DHT22;6543;48.836;10.092;2023-05-07T01:25:11;11.60;99.90
12957;DHT22;6543;48.836;10.092;2023-05-07T01:27:39;11.60;99.90
12957;DHT22;6543;48.836;10.092;2023-05-07T01:30:07;11.50;99.90
12957;DHT22;6543;48.836;10.092;2023-05-07T01:32:38;11.60;99.90
12957;DHT22;6543;48.836;10.092;2023-05-07T01:35:09;11.50;99.90
12957;DHT22;6543;48.836;10.092;2023-05-07T01:37:37;11.50;99.90
12957;DHT22;6543;48.836;10.092;2023-05-07T01:40:07;13.20;99.90
12957;DHT22;6543;48.836;10.092;2023-05-07T01:42:35;11.40;99.90
12957;DHT22;6543;48.836;10.092;2023-05-07T01:45:02;11.40;99.90
12957;DHT22;6543;48.836;10.092;2023-05-07T01:47:30;11.40;99.90
12957;DHT22;6543;48.836;10.092;2023-05-07T01:49:57;11.40;99.90
12957;DHT22;6543;48.836;10.092;2023-05-07T01:52:24;11.40;99.90
12957;DHT22;6543;48.836;10.092;2023-05-07T01:54:51;11.40;99.90
12957;DHT22;6543;48.836;10.092;2023-05-07T01:57:19;11.40;99.90
12957;DHT22;6543;48.836;10.092;2023-05-07T01:59:46;11.40;99.90
12957;DHT22;6543;48.836;10.092;2023-05-07T02:02:13;11.40;99.90
12957;DHT22;6543;48.836;10.092;2023-05-07T02:04:40;13.30;99.90
12957;DHT22;6543;48.836;10.092;2023-05-07T02:07:06;11.40;99.90
12957;DHT22;6543;48.836;10.092;2023-05-07T02:09:33;11.50;99.90
12957;DHT22;6543;48.836;10.092;2023-05-07T02:12:00;11.40;99.90
12957;DHT22;6543;48.836;10.092;2023-05-07T02:14:28;11.40;99.90
12957;DHT22;6543;48.836;10.092;2023-05-07T02:16:55;11.30;99.90
12957;DHT22;6543;48.836;10.092;2023-05-07T02:19:22;11.30;99.90
12957;DHT22;6543;48.836;10.092;2023-05-07T02:21:49;11.30;99.90
12957;DHT22;6543;48.836;10.092;2023-05-07T02:24:16;11.30;99.90
12957;DHT22;6543;48.836;10.092;2023-05-07T02:26:43;11.20;99.90
12957;DHT22;6543;48.836;10.092;2023-05-07T02:29:10;11.20;99.90
12957;DHT22;6543;48.836;10.092;2023-05-07T02:31:38;11.10;99.90
12957;DHT22;6543;48.836;10.092;2023-05-07T02:34:04;11.10;99.90
12957;DHT22;6543;48.836;10.092;2023-05-07T02:36:31;11.00;99.90
12957;DHT22;6543;48.836;10.092;2023-05-07T02:38:58;11.00;99.90
12957;DHT22;6543;48.836;10.092;2023-05-07T02:41:25;11.10;99.90
12957;DHT22;6543;48.836;10.092;2023-05-07T02:43:53;11.10;99.90
12957;DHT22;6543;48.836;10.092;2023-05-07T02:46:20;11.10;99.90
12957;DHT22;6543;48.836;10.092;2023-05-07T02:48:48;11.00;99.90
12957;DHT22;6543;48.836;10.092;2023-05-07T02:51:16;10.90;99.90
12957;DHT22;6543;48.836;10.092;2023-05-07T02:53:43;11.00;99.90
12957;DHT22;6543;48.836;10.092;2023-05-07T02:56:10;10.80;99.90
12957;DHT22;6543;48.836;10.092;2023-05-07T02:58:37;10.70;99.90
12957;DHT22;6543;48.836;10.092;2023-05-07T03:01:04;10.70;99.90
12957;DHT22;6543;48.836;10.092;2023-05-07T03:03:31;10.70;99.90
12957;DHT22;6543;48.836;10.092;2023-05-07T03:06:00;10.60;99.90
12957;DHT22;6543;48.836;10.092;2023-05-07T03:08:27;10.60;99.90
12957;DHT22;6543;48.836;10.092;2023-05-07T03:10:54;10.60;99.90
12957;DHT22;6543;48.836;10.092;2023-05-07T03:13:21;10.60;99.90
12957;DHT22;6543;48.836;10.092;2023-05-07T03:15:48;10.60;99.90
12957;DHT22;6543;48.836;10.092;2023-05-07T03:18:14;10.60;99.90
12957;DHT22;6543;48.836;10.092;2023-05-07T03:20:41;10.60;99.90
12957;DHT22;6543;48.836;10.092;2023-05-07T03:23:09;10.70;99.90
12957;DHT22;6543;48.836;10.092;2023-05-07T03:25:36;10.70;99.90
12957;DHT22;6543;48.836;10.092;2023-05-07T03:28:03;10.70;99.90
12957;DHT22;6543;48.836;10.092;2023-05-07T03:30:31;10.70;99.90
12957;DHT22;6543;48.836;10.092;2023-05-07T03:32:57;10.70;99.90
12957;DHT22;6543;48.836;10.092;2023-05-07T03:35:24;10.70;99.90
12957;DHT22;6543;48.836;10.092;2023-05-07T03:37:51;10.70;99.90
12957;DHT22;6543;48.836;10.092;2023-05-07T03:40:19;10.70;99.90
12957;DHT22;6543;48.836;10.092;2023-05-07T03:42:46;10.60;99.90
12957;DHT22;6543;48.836;10.092;2023-05-07T03:45:13;10.80;99.90
12957;DHT22;6543;48.836;10.092;2023-05-07T03:47:41;10.30;99.90
12957;DHT22;6543;48.836;10.092;2023-05-07T03:50:08;10.40;99.90
12957;DHT22;6543;48.836;10.092;2023-05-07T03:52:36;10.30;99.90
12957;DHT22;6543;48.836;10.092;2023-05-07T03:55:03;10.40;99.90
12957;DHT22;6543;48.836;10.092;2023-05-07T03:57:32;10.30;99.90
12957;DHT22;6543;48.836;10.092;2023-05-07T03:59:59;10.30;99.90
12957;DHT22;6543;48.836;10.092;2023-05-07T04:02:26;10.20;99.90
12957;DHT22;6543;48.836;10.092;2023-05-07T04:04:53;10.30;99.90
12957;DHT22;6543;48.836;10.092;2023-05-07T04:07:20;10.30;99.90
12957;DHT22;6543;48.836;10.092;2023-05-07T04:09:47;10.20;99.90
12957;DHT22;6543;48.836;10.092;2023-05-07T04:12:14;10.30;99.90
12957;DHT22;6543;48.836;10.092;2023-05-07T04:14:42;10.30;99.90
12957;DHT22;6543;48.836;10.092;2023-05-07T04:17:09;10.40;99.90
12957;DHT22;6543;48.836;10.092;2023-05-07T04:19:36;10.50;99.90
12957;DHT22;6543;48.836;10.092;2023-05-07T04:22:03;10.50;99.90
12957;DHT22;6543;48.836;10.092;2023-05-07T04:24:31;11.50;99.90
12957;DHT22;6543;48.836;10.092;2023-05-07T04:26:58;10.60;99.90
12957;DHT22;6543;48.836;10.092;2023-05-07T04:29:25;10.70;99.90
12957;DHT22;6543;48.836;10.092;2023-05-07T04:31:54;10.70;99.90
12957;DHT22;6543;48.836;10.092;2023-05-07T04:34:21;10.80;99.90
12957;DHT22;6543;48.836;10.092;2023-05-07T04:36:48;10.80;99.90
12957;DHT22;6543;48.836;10.092;2023-05-07T04:39:15;11.10;99.90
12957;DHT22;6543;48.836;10.092;2023-05-07T04:41:42;11.20;99.90
12957;DHT22;6543;48.836;10.092;2023-05-07T04:44:09;11.50;99.90
12957;DHT22;6543;48.836;10.092;2023-05-07T04:46:36;11.80;99.90
12957;DHT22;6543;48.836;10.092;2023-05-07T04:49:04;11.90;99.90
12957;DHT22;6543;48.836;10.092;2023-05-07T04:51:31;14.00;99.90
12957;DHT22;6543;48.836;10.092;2023-05-07T04:53:58;12.30;99.90
12957;DHT22;6543;48.836;10.092;2023-05-07T04:56:27;12.40;99.90
12957;DHT22;6543;48.836;10.092;2023-05-07T04:58:55;12.60;99.90
12957;DHT22;6543;48.836;10.092;2023-05-07T05:01:22;12.80;99.90
12957;DHT22;6543;48.836;10.092;2023-05-07T05:03:49;12.90;99.90
12957;DHT22;6543;48.836;10.092;2023-05-07T05:06:17;13.10;99.90
12957;DHT22;6543;48.836;10.092;2023-05-07T05:08:44;13.30;99.90
12957;DHT22;6543;48.836;10.092;2023-05-07T05:11:11;13.50;99.90
12957;DHT22;6543;48.836;10.092;2023-05-07T05:13:37;13.70;99.90
12957;DHT22;6543;48.836;10.092;2023-05-07T05:16:05;13.80;99.90
12957;DHT22;6543;48.836;10.092;2023-05-07T05:18:32;13.90;99.90
12957;DHT22;6543;48.836;10.092;2023-05-07T05:20:59;13.80;99.90
12957;DHT22;6543;48.836;10.092;2023-05-07T05:23:27;13.90;99.90
12957;DHT22;6543;48.836;10.092;2023-05-07T05:25:55;14.00;99.90
12957;DHT22;6543;48.836;10.092;2023-05-07T05:28:23;14.00;99.90
12957;DHT22;6543;48.836;10.092;2023-05-07T05:30:50;14.10;99.90
12957;DHT22;6543;48.836;10.092;2023-05-07T05:33:17;14.10;99.90
12957;DHT22;6543;48.836;10.092;2023-05-07T05:35:43;14.20;99.90
12957;DHT22;6543;48.836;10.092;2023-05-07T05:38:10;14.20;99.90
12957;DHT22;6543;48.836;10.092;2023-05-07T05:40:38;14.20;99.90
12957;DHT22;6543;48.836;10.092;2023-05-07T05:43:05;15.80;99.90
12957;DHT22;6543;48.836;10.092;2023-05-07T05:45:32;14.40;99.90
12957;DHT22;6543;48.836;10.092;2023-05-07T05:47:59;14.40;99.90
12957;DHT22;6543;48.836;10.092;2023-05-07T05:50:26;14.40;99.90
12957;DHT22;6543;48.836;10.092;2023-05-07T05:52:53;14.40;99.90
12957;DHT22;6543;48.836;10.092;2023-05-07T05:55:20;15.50;99.90
12957;DHT22;6543;48.836;10.092;2023-05-07T05:57:51;14.40;99.90
12957;DHT22;6543;48.836;10.092;2023-05-07T06:00:18;14.40;99.90
12957;DHT22;6543;48.836;10.092;2023-05-07T06:02:47;14.30;99.90
12957;DHT22;6543;48.836;10.092;2023-05-07T06:05:14;14.30;99.90
12957;DHT22;6543;48.836;10.092;2023-05-07T06:07:41;14.30;99.90
12957;DHT22;6543;48.836;10.092;2023-05-07T06:10:08;14.30;99.90
12957;DHT22;6543;48.836;10.092;2023-05-07T06:12:35;14.40;99.90
12957;DHT22;6543;48.836;10.092;2023-05-07T06:15:04;14.60;99.90
12957;DHT22;6543;48.836;10.092;2023-05-07T06:17:31;14.70;99.90
12957;DHT22;6543;48.836;10.092;2023-05-07T06:19:58;14.80;99.90
12957;DHT22;6543;48.836;10.092;2023-05-07T06:22:25;14.90;99.90
12957;DHT22;6543;48.836;10.092;2023-05-07T06:24:52;14.90;99.90
12957;DHT22;6543;48.836;10.092;2023-05-07T06:27:18;15.10;99.90
12957;DHT22;6543;48.836;10.092;2023-05-07T06:29:48;16.60;99.90
12957;DHT22;6543;48.836;10.092;2023-05-07T06:32:16;15.30;99.90
12957;DHT22;6543;48.836;10.092;2023-05-07T06:34:43;15.40;99.90
12957;DHT22;6543;48.836;10.092;2023-05-07T06:37:10;15.50;99.90
12957;DHT22;6543;48.836;10.092;2023-05-07T06:39:37;15.70;99.90
12957;DHT22;6543;48.836;10.092;2023-05-07T06:42:04;15.90;99.90
12957;DHT22;6543;48.836;10.092;2023-05-07T06:44:31;16.10;99.90
12957;DHT22;6543;48.836;10.092;2023-05-07T06:46:58;16.20;99.90
12957;DHT22;6543;48.836;10.092;2023-05-07T06:49:26;16.30;99.90
12957;DHT22;6543;48.836;10.092;2023-05-07T06:51:53;16.60;99.90
12957;DHT22;6543;48.836;10.092;2023-05-07T06:54:20;16.60;99.90
12957;DHT22;6543;48.836;10.092;2023-05-07T06:56:47;17.00;99.90
12957;DHT22;6543;48.836;10.092;2023-05-07T06:59:15;17.10;99.90
12957;DHT22;6543;48.836;10.092;2023-05-07T07:01:42;17.20;99.90
12957;DHT22;6543;48.836;10.092;2023-05-07T07:04:09;17.30;99.90
12957;DHT22;6543;48.836;10.092;2023-05-07T07:06:37;17.40;99.90
12957;DHT22;6543;48.836;10.092;2023-05-07T07:09:04;17.70;99.90
12957;DHT22;6543;48.836;10.092;2023-05-07T07:11:31;17.90;99.90
12957;DHT22;6543;48.836;10.092;2023-05-07T07:13:58;18.10;99.90
12957;DHT22;6543;48.836;10.092;2023-05-07T07:16:25;18.30;99.90
12957;DHT22;6543;48.836;10.092;2023-05-07T07:18:51;18.30;99.90
12957;DHT22;6543;48.836;10.092;2023-05-07T07:21:18;18.20;99.90
12957;DHT22;6543;48.836;10.092;2023-05-07T07:23:47;18.20;99.90
12957;DHT22;6543;48.836;10.092;2023-05-07T07:26:13;18.40;99.90
12957;DHT22;6543;48.836;10.092;2023-05-07T07:28:44;18.70;99.90
12957;DHT22;6543;48.836;10.092;2023-05-07T07:31:11;18.80;99.90
12957;DHT22;6543;48.836;10.092;2023-05-07T07:33:38;18.90;99.90
12957;DHT22;6543;48.836;10.092;2023-05-07T07:36:06;18.90;99.90
12957;DHT22;6543;48.836;10.092;2023-05-07T07:38:33;19.10;99.90
12957;DHT22;6543;48.836;10.092;2023-05-07T07:41:02;19.40;99.90
12957;DHT22;6543;48.836;10.092;2023-05-07T07:43:28;19.40;99.90
12957;DHT22;6543;48.836;10.092;2023-05-07T07:45:55;19.60;99.90
12957;DHT22;6543;48.836;10.092;2023-05-07T07:48:22;19.60;99.90
12957;DHT22;6543;48.836;10.092;2023-05-07T07:50:50;19.70;99.90
12957;DHT22;6543;48.836;10.092;2023-05-07T07:53:17;19.50;99.90
12957;DHT22;6543;48.836;10.092;2023-05-07T07:55:44;19.90;99.90
12957;DHT22;6543;48.836;10.092;2023-05-07T07:58:12;19.90;99.90
12957;DHT22;6543;48.836;10.092;2023-05-07T08:00:39;20.00;99.90
12957;DHT22;6543;48.836;10.092;2023-05-07T08:03:09;20.30;99.90
12957;DHT22;6543;48.836;10.092;2023-05-07T08:05:36;20.40;99.90
12957;DHT22;6543;48.836;10.092;2023-05-07T08:08:04;20.40;99.90
12957;DHT22;6543;48.836;10.092;2023-05-07T08:10:31;20.60;99.90
12957;DHT22;6543;48.836;10.092;2023-05-07T08:13:01;20.40;99.90
12957;DHT22;6543;48.836;10.092;2023-05-07T08:15:31;20.30;99.90
12957;DHT22;6543;48.836;10.092;2023-05-07T08:17:58;20.40;99.90
12957;DHT22;6543;48.836;10.092;2023-05-07T08:20:26;20.70;99.90
12957;DHT22;6543;48.836;10.092;2023-05-07T08:22:53;20.80;99.90
12957;DHT22;6543;48.836;10.092;2023-05-07T08:25:20;20.70;99.90
12957;DHT22;6543;48.836;10.092;2023-05-07T08:27:47;20.90;99.90
12957;DHT22;6543;48.836;10.092;2023-05-07T08:30:14;20.80;99.90
12957;DHT22;6543;48.836;10.092;2023-05-07T08:32:43;21.20;99.90
12957;DHT22;6543;48.836;10.092;2023-05-07T08:35:10;21.20;99.90
12957;DHT22;6543;48.836;10.092;2023-05-07T08:37:37;21.00;99.90
12957;DHT22;6543;48.836;10.092;2023-05-07T08:40:05;21.30;99.90
12957;DHT22;6543;48.836;10.092;2023-05-07T08:42:35;21.50;99.90
12957;DHT22;6543;48.836;10.092;2023-05-07T08:45:05;21.00;99.90
12957;DHT22;6543;48.836;10.092;2023-05-07T08:47:44;21.10;99.90
12957;DHT22;6543;48.836;10.092;2023-05-07T08:50:13;21.60;99.90
12957;DHT22;6543;48.836;10.092;2023-05-07T08:52:40;21.70;99.90
12957;DHT22;6543;48.836;10.092;2023-05-07T08:55:08;21.90;99.90
12957;DHT22;6543;48.836;10.092;2023-05-07T08:57:35;22.00;99.90
12957;DHT22;6543;48.836;10.092;2023-05-07T09:00:02;22.20;99.90
12957;DHT22;6543;48.836;10.092;2023-05-07T09:02:29;22.40;99.90
12957;DHT22;6543;48.836;10.092;2023-05-07T09:04:58;22.30;99.90
12957;DHT22;6543;48.836;10.092;2023-05-07T09:07:25;22.50;99.90
12957;DHT22;6543;48.836;10.092;2023-05-07T09:09:52;22.80;99.90
12957;DHT22;6543;48.836;10.092;2023-05-07T09:12:21;22.70;99.90
12957;DHT22;6543;48.836;10.092;2023-05-07T09:14:48;22.40;99.90
12957;DHT22;6543;48.836;10.092;2023-05-07T09:17:15;22.60;99.90
12957;DHT22;6543;48.836;10.092;2023-05-07T09:19:44;23.00;99.90
12957;DHT22;6543;48.836;10.092;2023-05-07T09:22:13;22.80;99.90
12957;DHT22;6543;48.836;10.092;2023-05-07T09:24:40;22.90;99.90
12957;DHT22;6543;48.836;10.092;2023-05-07T09:27:07;22.90;99.90
12957;DHT22;6543;48.836;10.092;2023-05-07T09:29:38;23.00;99.90
12957;DHT22;6543;48.836;10.092;2023-05-07T09:32:06;22.90;99.90
12957;DHT22;6543;48.836;10.092;2023-05-07T09:34:33;22.70;99.90
12957;DHT22;6543;48.836;10.092;2023-05-07T09:37:01;22.00;99.90
12957;DHT22;6543;48.836;10.092;2023-05-07T09:39:38;21.50;99.90
12957;DHT22;6543;48.836;10.092;2023-05-07T09:42:06;21.80;99.90
12957;DHT22;6543;48.836;10.092;2023-05-07T09:44:33;22.00;99.90
12957;DHT22;6543;48.836;10.092;2023-05-07T09:47:00;21.40;99.90
12957;DHT22;6543;48.836;10.092;2023-05-07T09:49:30;21.80;99.90
12957;DHT22;6543;48.836;10.092;2023-05-07T09:52:01;22.40;99.90
12957;DHT22;6543;48.836;10.092;2023-05-07T09:54:28;22.50;99.90
12957;DHT22;6543;48.836;10.092;2023-05-07T09:56:59;22.20;99.90
12957;DHT22;6543;48.836;10.092;2023-05-07T09:59:28;22.10;99.90
12957;DHT22;6543;48.836;10.092;2023-05-07T10:01:57;22.00;99.90
12957;DHT22;6543;48.836;10.092;2023-05-07T10:04:25;22.20;99.90
12957;DHT22;6543;48.836;10.092;2023-05-07T10:06:52;22.40;99.90
12957;DHT22;6543;48.836;10.092;2023-05-07T10:09:21;22.60;99.90
12957;DHT22;6543;48.836;10.092;2023-05-07T10:11:49;22.80;99.90
12957;DHT22;6543;48.836;10.092;2023-05-07T10:14:17;22.60;99.90
12957;DHT22;6543;48.836;10.092;2023-05-07T10:16:47;22.80;99.90
12957;DHT22;6543;48.836;10.092;2023-05-07T10:19:15;22.90;99.90
12957;DHT22;6543;48.836;10.092;2023-05-07T10:21:48;22.90;99.90
12957;DHT22;6543;48.836;10.092;2023-05-07T10:24:21;23.20;99.90
12957;DHT22;6543;48.836;10.092;2023-05-07T10:26:51;23.50;99.90
12957;DHT22;6543;48.836;10.092;2023-05-07T10:29:29;23.80;99.90
12957;DHT22;6543;48.836;10.092;2023-05-07T10:32:10;23.50;99.90
12957;DHT22;6543;48.836;10.092;2023-05-07T10:34:43;23.50;99.90
12957;DHT22;6543;48.836;10.092;2023-05-07T10:37:11;23.10;99.90
12957;DHT22;6543;48.836;10.092;2023-05-07T10:39:38;23.40;99.90
12957;DHT22;6543;48.836;10.092;2023-05-07T10:42:09;23.20;99.90
12957;DHT22;6543;48.836;10.092;2023-05-07T10:44:37;23.70;99.90
12957;DHT22;6543;48.836;10.092;2023-05-07T10:47:06;23.70;99.90
12957;DHT22;6543;48.836;10.092;2023-05-07T10:49:35;24.10;99.90
12957;DHT22;6543;48.836;10.092;2023-05-07T10:52:15;23.90;99.90
12957;DHT22;6543;48.836;10.092;2023-05-07T10:54:42;23.60;99.90
12957;DHT22;6543;48.836;10.092;2023-05-07T10:57:34;23.30;99.90
12957;DHT22;6543;48.836;10.092;2023-05-07T11:00:04;23.50;99.90
12957;DHT22;6543;48.836;10.092;2023-05-07T11:03:06;24.50;99.90
12957;DHT22;6543;48.836;10.092;2023-05-07T11:05:33;24.40;99.90
12957;DHT22;6543;48.836;10.092;2023-05-07T11:08:01;24.40;99.90
12957;DHT22;6543;48.836;10.092;2023-05-07T11:10:49;24.20;99.90
12957;DHT22;6543;48.836;10.092;2023-05-07T11:13:17;23.20;99.90
12957;DHT22;6543;48.836;10.092;2023-05-07T11:15:46;23.90;99.90
12957;DHT22;6543;48.836;10.092;2023-05-07T11:18:15;24.30;99.90
12957;DHT22;6543;48.836;10.092;2023-05-07T11:20:56;24.20;99.90
12957;DHT22;6543;48.836;10.092;2023-05-07T11:26:46;24.70;99.90
12957;DHT22;6543;48.836;10.092;2023-05-07T11:29:17;25.00;99.90
12957;DHT22;6543;48.836;10.092;2023-05-07T11:31:48;24.80;99.90
12957;DHT22;6543;48.836;10.092;2023-05-07T11:34:20;24.90;99.90
12957;DHT22;6543;48.836;10.092;2023-05-07T11:36:48;24.80;99.90
12957;DHT22;6543;48.836;10.092;2023-05-07T11:39:29;24.40;99.90
12957;DHT22;6543;48.836;10.092;2023-05-07T11:41:57;24.90;99.90
12957;DHT22;6543;48.836;10.092;2023-05-07T11:44:24;24.60;99.90
12957;DHT22;6543;48.836;10.092;2023-05-07T11:46:52;25.20;99.90
12957;DHT22;6543;48.836;10.092;2023-05-07T11:49:19;25.10;99.90
12957;DHT22;6543;48.836;10.092;2023-05-07T11:51:46;25.20;99.90
12957;DHT22;6543;48.836;10.092;2023-05-07T11:54:16;24.80;99.90
12957;DHT22;6543;48.836;10.092;2023-05-07T11:56:44;25.00;99.90
12957;DHT22;6543;48.836;10.092;2023-05-07T11:59:11;24.70;99.90
12957;DHT22;6543;48.836;10.092;2023-05-07T12:01:38;24.80;99.90
12957;DHT22;6543;48.836;10.092;2023-05-07T12:04:07;24.40;99.90
12957;DHT22;6543;48.836;10.092;2023-05-07T12:06:36;25.30;99.90
12957;DHT22;6543;48.836;10.092;2023-05-07T12:09:04;25.30;99.90
12957;DHT22;6543;48.836;10.092;2023-05-07T12:11:32;25.30;99.90
12957;DHT22;6543;48.836;10.092;2023-05-07T12:14:00;25.30;99.90
12957;DHT22;6543;48.836;10.092;2023-05-07T12:16:27;25.50;99.90
12957;DHT22;6543;48.836;10.092;2023-05-07T12:18:55;25.30;99.90
12957;DHT22;6543;48.836;10.092;2023-05-07T12:21:25;25.40;99.90
12957;DHT22;6543;48.836;10.092;2023-05-07T12:23:52;25.70;99.90
12957;DHT22;6543;48.836;10.092;2023-05-07T12:26:19;25.50;99.90
12957;DHT22;6543;48.836;10.092;2023-05-07T12:28:47;24.50;99.90
12957;DHT22;6543;48.836;10.092;2023-05-07T12:31:14;25.00;99.90
12957;DHT22;6543;48.836;10.092;2023-05-07T12:33:41;24.70;99.90
12957;DHT22;6543;48.836;10.092;2023-05-07T12:36:11;24.70;99.90
12957;DHT22;6543;48.836;10.092;2023-05-07T12:38:40;25.30;99.90
12957;DHT22;6543;48.836;10.092;2023-05-07T12:41:08;25.00;99.90
12957;DHT22;6543;48.836;10.092;2023-05-07T12:43:36;24.70;99.90
12957;DHT22;6543;48.836;10.092;2023-05-07T12:46:06;24.10;99.90
12957;DHT22;6543;48.836;10.092;2023-05-07T12:48:35;24.00;99.90
12957;DHT22;6543;48.836;10.092;2023-05-07T12:51:02;24.50;99.90
12957;DHT22;6543;48.836;10.092;2023-05-07T12:53:30;25.10;99.90
12957;DHT22;6543;48.836;10.092;2023-05-07T12:55:59;25.10;99.90
12957;DHT22;6543;48.836;10.092;2023-05-07T12:58:27;25.10;99.90
12957;DHT22;6543;48.836;10.092;2023-05-07T13:00:55;25.60;99.90
12957;DHT22;6543;48.836;10.092;2023-05-07T13:03:25;24.80;99.90
12957;DHT22;6543;48.836;10.092;2023-05-07T13:05:53;25.00;99.90
12957;DHT22;6543;48.836;10.092;2023-05-07T13:08:25;25.30;99.90
12957;DHT22;6543;48.836;10.092;2023-05-07T13:10:52;24.90;99.90
12957;DHT22;6543;48.836;10.092;2023-05-07T13:13:20;24.30;99.90
12957;DHT22;6543;48.836;10.092;2023-05-07T13:15:47;23.90;99.90
12957;DHT22;6543;48.836;10.092;2023-05-07T13:18:17;24.50;99.90
12957;DHT22;6543;48.836;10.092;2023-05-07T13:20:44;24.90;99.90
12957;DHT22;6543;48.836;10.092;2023-05-07T13:23:11;24.90;99.90
12957;DHT22;6543;48.836;10.092;2023-05-07T13:25:38;24.60;99.90
12957;DHT22;6543;48.836;10.092;2023-05-07T13:28:05;23.80;99.90
12957;DHT22;6543;48.836;10.092;2023-05-07T13:30:33;23.50;99.90
12957;DHT22;6543;48.836;10.092;2023-05-07T13:33:01;24.00;99.90
12957;DHT22;6543;48.836;10.092;2023-05-07T13:35:28;24.10;99.90
12957;DHT22;6543;48.836;10.092;2023-05-07T13:37:55;23.90;99.90
12957;DHT22;6543;48.836;10.092;2023-05-07T13:40:22;23.70;99.90
12957;DHT22;6543;48.836;10.092;2023-05-07T13:42:50;23.30;99.90
12957;DHT22;6543;48.836;10.092;2023-05-07T13:45:17;23.30;99.90
12957;DHT22;6543;48.836;10.092;2023-05-07T13:47:46;23.00;99.90
12957;DHT22;6543;48.836;10.092;2023-05-07T13:50:15;23.30;99.90
12957;DHT22;6543;48.836;10.092;2023-05-07T13:52:42;23.00;99.90
12957;DHT22;6543;48.836;10.092;2023-05-07T13:55:11;22.90;99.90
12957;DHT22;6543;48.836;10.092;2023-05-07T13:57:38;23.30;99.90
12957;DHT22;6543;48.836;10.092;2023-05-07T14:00:07;23.60;99.90
12957;DHT22;6543;48.836;10.092;2023-05-07T14:02:34;23.30;99.90
12957;DHT22;6543;48.836;10.092;2023-05-07T14:05:02;23.10;99.90
12957;DHT22;6543;48.836;10.092;2023-05-07T14:07:30;23.20;99.90
12957;DHT22;6543;48.836;10.092;2023-05-07T14:09:57;23.00;99.90
12957;DHT22;6543;48.836;10.092;2023-05-07T14:12:24;23.10;99.90
12957;DHT22;6543;48.836;10.092;2023-05-07T14:14:51;23.30;99.90
12957;DHT22;6543;48.836;10.092;2023-05-07T14:17:18;23.20;99.90
12957;DHT22;6543;48.836;10.092;2023-05-07T14:19:45;23.50;99.90
12957;DHT22;6543;48.836;10.092;2023-05-07T14:22:14;23.50;99.90
12957;DHT22;6543;48.836;10.092;2023-05-07T14:24:41;23.30;99.90
12957;DHT22;6543;48.836;10.092;2023-05-07T14:27:08;23.30;99.90
12957;DHT22;6543;48.836;10.092;2023-05-07T14:29:35;23.40;99.90
12957;DHT22;6543;48.836;10.092;2023-05-07T14:32:02;23.00;99.90
12957;DHT22;6543;48.836;10.092;2023-05-07T14:34:29;22.80;99.90
12957;DHT22;6543;48.836;10.092;2023-05-07T14:36:56;22.70;99.90
12957;DHT22;6543;48.836;10.092;2023-05-07T14:39:25;22.50;99.90
12957;DHT22;6543;48.836;10.092;2023-05-07T14:41:52;22.20;99.90
12957;DHT22;6543;48.836;10.092;2023-05-07T14:44:20;22.20;99.90
12957;DHT22;6543;48.836;10.092;2023-05-07T14:46:47;22.60;99.90
12957;DHT22;6543;48.836;10.092;2023-05-07T14:49:14;22.90;99.90
12957;DHT22;6543;48.836;10.092;2023-05-07T14:51:43;22.90;99.90
12957;DHT22;6543;48.836;10.092;2023-05-07T14:54:10;22.70;99.90
12957;DHT22;6543;48.836;10.092;2023-05-07T14:56:39;22.50;99.90
12957;DHT22;6543;48.836;10.092;2023-05-07T14:59:06;22.60;99.90
12957;DHT22;6543;48.836;10.092;2023-05-07T15:01:34;22.70;99.90
12957;DHT22;6543;48.836;10.092;2023-05-07T15:04:03;22.90;99.90
12957;DHT22;6543;48.836;10.092;2023-05-07T15:06:30;22.90;99.90
12957;DHT22;6543;48.836;10.092;2023-05-07T15:08:56;22.90;99.90
12957;DHT22;6543;48.836;10.092;2023-05-07T15:11:23;22.90;99.90
12957;DHT22;6543;48.836;10.092;2023-05-07T15:13:51;22.90;99.90
12957;DHT22;6543;48.836;10.092;2023-05-07T15:16:18;22.80;99.90
12957;DHT22;6543;48.836;10.092;2023-05-07T15:18:46;22.50;99.90
12957;DHT22;6543;48.836;10.092;2023-05-07T15:21:15;22.20;99.90
12957;DHT22;6543;48.836;10.092;2023-05-07T15:23:42;22.10;99.90
12957;DHT22;6543;48.836;10.092;2023-05-07T15:26:10;22.00;99.90
12957;DHT22;6543;48.836;10.092;2023-05-07T15:28:37;22.00;99.90
12957;DHT22;6543;48.836;10.092;2023-05-07T15:31:06;21.90;99.90
12957;DHT22;6543;48.836;10.092;2023-05-07T15:33:32;21.90;99.90
12957;DHT22;6543;48.836;10.092;2023-05-07T15:35:59;22.00;99.90
12957;DHT22;6543;48.836;10.092;2023-05-07T15:38:29;21.80;99.90